createdAt,value
2022-11-16T00:00:15.469Z,2.70
2022-11-16T00:02:16.959Z,2.70
2022-11-16T00:04:18.447Z,2.63
2022-11-16T00:06:21.081Z,2.78
2022-11-16T00:08:22.688Z,2.92
2022-11-16T00:10:24.193Z,2.92
2022-11-16T00:12:25.572Z,2.88
2022-11-16T00:14:29.813Z,2.95
2022-11-16T00:16:31.230Z,2.80
2022-11-16T00:18:33.116Z,2.78
2022-11-16T00:20:34.640Z,3.03
2022-11-16T00:22:36.013Z,2.80
2022-11-16T00:24:37.383Z,2.88
2022-11-16T00:26:38.751Z,3.13
2022-11-16T00:28:40.255Z,2.80
2022-11-16T00:30:41.668Z,3.00
2022-11-16T00:32:42.998Z,3.33
2022-11-16T00:34:44.393Z,3.03
2022-11-16T00:36:46.617Z,3.17
2022-11-16T00:38:51.146Z,3.67
2022-11-16T00:40:52.563Z,3.63
2022-11-16T00:42:53.900Z,3.40
2022-11-16T00:44:55.376Z,2.92
2022-11-16T00:46:56.745Z,3.63
2022-11-16T00:48:58.155Z,3.75
2022-11-16T00:50:59.508Z,3.38
2022-11-16T00:53:00.940Z,3.70
2022-11-16T00:55:02.282Z,3.40
2022-11-16T00:57:03.700Z,3.58
2022-11-16T00:59:05.278Z,3.85
2022-11-16T01:01:08.863Z,3.33
2022-11-16T01:03:10.950Z,3.30
2022-11-16T01:05:12.604Z,3.13
2022-11-16T01:07:14.093Z,3.50
2022-11-16T01:09:15.510Z,3.30
2022-11-16T01:11:36.271Z,3.60
2022-11-16T01:13:37.617Z,3.78
2022-11-16T01:15:39.009Z,3.63
2022-11-16T01:17:40.924Z,3.63
2022-11-16T01:19:42.405Z,3.78
2022-11-16T01:21:43.739Z,4.32
2022-11-16T01:23:45.220Z,4.25
2022-11-16T01:25:46.539Z,3.63
2022-11-16T01:27:48.003Z,3.67
2022-11-16T01:29:49.370Z,4.22
2022-11-16T01:31:50.778Z,3.80
2022-11-16T01:33:52.159Z,4.18
2022-11-16T01:35:53.521Z,3.65
2022-11-16T01:37:54.884Z,3.95
2022-11-16T01:39:56.412Z,3.70
2022-11-16T01:41:57.820Z,4.47
2022-11-16T01:44:15.570Z,3.38
2022-11-16T01:46:16.987Z,4.03
2022-11-16T01:48:25.861Z,3.95
2022-11-16T01:50:27.666Z,4.47
2022-11-16T01:52:32.649Z,3.85
2022-11-16T01:54:40.565Z,3.75
2022-11-16T01:56:45.248Z,4.57
2022-11-16T01:58:47.004Z,3.92
2022-11-16T02:00:49.159Z,4.38
2022-11-16T02:02:51.005Z,4.40
2022-11-16T02:04:55.239Z,4.10
2022-11-16T02:07:05.566Z,4.15
2022-11-16T02:09:38.725Z,4.55
2022-11-16T02:12:11.086Z,4.07
2022-11-16T02:14:21.383Z,5.35
2022-11-16T02:16:49.464Z,4.00
2022-11-16T02:19:32.245Z,4.10
2022-11-16T02:21:42.492Z,4.65
2022-11-16T02:24:33.032Z,4.72
2022-11-16T02:27:19.290Z,4.85
2022-11-16T02:29:37.910Z,4.47
2022-11-16T02:31:46.956Z,5.15
2022-11-16T02:33:50.097Z,5.18
2022-11-16T02:35:56.369Z,4.85
2022-11-16T02:38:02.605Z,4.85
2022-11-16T02:40:07.824Z,4.93
2022-11-16T02:42:17.059Z,4.22
2022-11-16T02:44:23.075Z,4.55
2022-11-16T02:46:31.122Z,5.10
2022-11-16T02:48:43.419Z,4.43
2022-11-16T02:50:46.664Z,4.60
2022-11-16T02:52:48.004Z,4.32
2022-11-16T02:54:49.423Z,4.15
2022-11-16T02:56:57.499Z,4.65
2022-11-16T02:58:59.775Z,4.45
2022-11-16T03:01:06.211Z,4.03
2022-11-16T03:03:30.904Z,4.15
2022-11-16T03:05:45.484Z,3.72
2022-11-16T03:08:15.004Z,4.00
2022-11-16T03:10:40.150Z,3.45
2022-11-16T03:12:42.146Z,3.47
2022-11-16T03:14:58.585Z,3.88
2022-11-16T03:17:01.944Z,3.85
2022-11-16T03:19:07.898Z,4.43
2022-11-16T03:21:24.184Z,4.10
2022-11-16T03:23:25.531Z,3.50
2022-11-16T03:25:32.956Z,3.72
2022-11-16T03:27:44.828Z,3.90
2022-11-16T03:30:04.726Z,3.92
2022-11-16T03:32:16.452Z,3.50
2022-11-16T03:34:22.455Z,4.00
2022-11-16T03:36:33.494Z,4.47
2022-11-16T03:38:37.700Z,3.60
2022-11-16T03:40:40.528Z,3.70
2022-11-16T03:42:43.816Z,3.42
2022-11-16T03:44:47.642Z,3.90
2022-11-16T03:46:49.028Z,3.50
2022-11-16T03:48:57.029Z,3.17
2022-11-16T03:50:58.449Z,3.95
2022-11-16T03:52:59.780Z,4.35
2022-11-16T03:55:01.227Z,3.95
2022-11-16T03:57:02.581Z,3.72
2022-11-16T03:59:04.487Z,3.90
2022-11-16T04:01:06.071Z,4.22
2022-11-16T04:03:07.613Z,3.90
2022-11-16T04:05:28.508Z,3.97
2022-11-16T04:07:48.324Z,3.88
2022-11-16T04:10:08.180Z,3.65
2022-11-16T04:12:27.860Z,3.45
2022-11-16T04:14:48.215Z,4.13
2022-11-16T04:17:08.063Z,3.47
2022-11-16T04:19:28.405Z,3.63
2022-11-16T04:21:57.335Z,4.80
2022-11-16T04:24:13.572Z,4.47
2022-11-16T04:26:15.284Z,4.28
2022-11-16T04:28:19.243Z,4.18
2022-11-16T04:30:20.783Z,4.82
2022-11-16T04:32:40.732Z,4.65
2022-11-16T04:35:00.457Z,2.97
2022-11-16T04:37:20.141Z,2.92
2022-11-16T04:39:21.895Z,3.33
2022-11-16T04:41:42.078Z,2.80
2022-11-16T04:43:43.448Z,3.05
2022-11-16T04:46:03.200Z,2.33
2022-11-16T04:48:05.024Z,2.40
2022-11-16T04:50:07.021Z,3.00
2022-11-16T04:52:08.859Z,2.75
2022-11-16T04:54:10.227Z,2.45
2022-11-16T04:56:12.415Z,2.75
2022-11-16T04:58:13.818Z,2.40
2022-11-16T05:00:15.829Z,2.15
2022-11-16T05:02:17.431Z,1.83
2022-11-16T05:04:18.796Z,1.95
2022-11-16T05:06:20.172Z,1.60
2022-11-16T05:08:21.523Z,1.83
2022-11-16T05:10:22.936Z,1.60
2022-11-16T05:12:26.270Z,2.03
2022-11-16T05:14:27.626Z,2.13
2022-11-16T05:16:28.953Z,1.73
2022-11-16T05:18:30.500Z,2.05
2022-11-16T05:20:50.557Z,2.53
2022-11-16T05:22:56.560Z,2.28
2022-11-16T05:24:57.998Z,2.38
2022-11-16T05:27:04.696Z,2.38
2022-11-16T05:29:06.055Z,2.47
2022-11-16T05:31:07.399Z,2.20
2022-11-16T05:33:08.728Z,1.90
2022-11-16T05:35:10.106Z,2.13
2022-11-16T05:37:11.861Z,2.33
2022-11-16T05:39:13.278Z,1.90
2022-11-16T05:41:14.694Z,2.38
2022-11-16T05:43:16.084Z,2.70
2022-11-16T05:45:21.023Z,2.20
2022-11-16T05:47:22.673Z,2.63
2022-11-16T05:49:24.393Z,2.35
2022-11-16T05:51:25.827Z,2.20
2022-11-16T05:53:27.200Z,2.10
2022-11-16T05:55:28.584Z,2.85
2022-11-16T05:57:29.941Z,2.10
2022-11-16T05:59:31.370Z,2.10
2022-11-16T06:01:32.758Z,1.90
2022-11-16T06:03:35.528Z,1.85
2022-11-16T06:05:40.488Z,2.15
2022-11-16T06:07:42.245Z,2.10
2022-11-16T06:09:43.735Z,2.30
2022-11-16T06:11:45.098Z,2.42
2022-11-16T06:13:46.468Z,1.88
2022-11-16T06:15:53.168Z,2.33
2022-11-16T06:17:54.540Z,1.98
2022-11-16T06:19:55.880Z,2.80
2022-11-16T06:21:57.232Z,1.95
2022-11-16T06:23:58.598Z,1.67
2022-11-16T06:26:00.361Z,1.55
2022-11-16T06:28:06.648Z,1.55
2022-11-16T06:30:09.400Z,1.50
2022-11-16T06:32:10.752Z,1.75
2022-11-16T06:34:12.102Z,1.30
2022-11-16T06:36:13.498Z,1.52
2022-11-16T06:38:18.595Z,1.42
2022-11-16T06:40:19.935Z,1.60
2022-11-16T06:42:21.354Z,1.20
2022-11-16T06:44:22.759Z,1.40
2022-11-16T06:46:24.649Z,1.10
2022-11-16T06:48:26.600Z,1.17
2022-11-16T06:50:27.951Z,1.50
2022-11-16T06:52:29.384Z,1.38
2022-11-16T06:54:30.748Z,1.63
2022-11-16T06:56:34.624Z,1.42
2022-11-16T06:58:36.330Z,1.40
2022-11-16T07:00:38.074Z,1.48
2022-11-16T07:02:40.107Z,1.40
2022-11-16T07:04:41.756Z,1.35
2022-11-16T07:06:43.093Z,1.50
2022-11-16T07:08:44.504Z,1.50
2022-11-16T07:10:45.851Z,1.35
2022-11-16T07:12:47.200Z,1.55
2022-11-16T07:14:48.641Z,1.50
2022-11-16T07:16:52.685Z,1.38
2022-11-16T07:18:58.975Z,1.42
2022-11-16T07:21:09.165Z,1.55
2022-11-16T07:23:14.217Z,1.88
2022-11-16T07:25:15.859Z,1.90
2022-11-16T07:27:17.235Z,1.58
2022-11-16T07:29:19.350Z,1.17
2022-11-16T07:31:20.735Z,1.33
2022-11-16T07:33:22.175Z,1.55
2022-11-16T07:35:24.910Z,1.67
2022-11-16T07:37:26.410Z,1.85
2022-11-16T07:39:27.813Z,1.58
2022-11-16T07:41:29.173Z,1.77
2022-11-16T07:43:31.974Z,2.28
2022-11-16T07:45:33.848Z,1.85
2022-11-16T07:47:36.768Z,1.85
2022-11-16T07:49:38.217Z,1.77
2022-11-16T07:51:39.616Z,2.22
2022-11-16T07:53:42.159Z,2.25
2022-11-16T07:55:43.492Z,2.30
2022-11-16T07:57:47.948Z,2.50
2022-11-16T07:59:53.395Z,2.25
2022-11-16T08:01:59.099Z,2.55
2022-11-16T08:04:03.547Z,2.30
2022-11-16T08:06:12.295Z,2.30
2022-11-16T08:08:13.696Z,2.60
2022-11-16T08:10:15.338Z,2.70
2022-11-16T08:12:17.386Z,2.50
2022-11-16T08:14:19.159Z,3.00
2022-11-16T08:16:22.267Z,3.05
2022-11-16T08:18:23.607Z,3.20
2022-11-16T08:20:25.072Z,3.10
2022-11-16T08:22:26.459Z,2.70
2022-11-16T08:24:28.075Z,2.60
2022-11-16T08:26:29.539Z,3.25
2022-11-16T08:28:31.781Z,2.92
2022-11-16T08:30:33.392Z,2.63
2022-11-16T08:32:34.801Z,2.30
2022-11-16T08:34:36.158Z,2.67
2022-11-16T08:36:40.264Z,2.20
2022-11-16T08:38:41.649Z,3.47
2022-11-16T08:40:43.004Z,2.60
2022-11-16T08:42:44.426Z,2.13
2022-11-16T08:44:45.806Z,2.20
2022-11-16T08:46:47.239Z,2.13
2022-11-16T08:48:48.699Z,3.00
2022-11-16T08:51:16.061Z,2.03
2022-11-16T08:53:11.470Z,1.90
2022-11-16T08:55:13.869Z,1.58
2022-11-16T08:57:15.225Z,1.85
2022-11-16T08:59:16.681Z,1.65
2022-11-16T09:01:21.557Z,1.45
2022-11-16T09:03:22.996Z,1.33
2022-11-16T09:05:24.411Z,1.55
2022-11-16T09:07:25.817Z,1.52
2022-11-16T09:09:27.155Z,1.52
2022-11-16T09:11:29.087Z,2.05
2022-11-16T09:13:30.435Z,1.55
2022-11-16T09:15:32.004Z,1.13
2022-11-16T09:17:33.421Z,1.10
2022-11-16T09:19:34.765Z,1.30
2022-11-16T09:21:37.517Z,1.52
2022-11-16T09:23:38.941Z,1.27
2022-11-16T09:25:40.267Z,1.52
2022-11-16T09:27:41.793Z,1.35
2022-11-16T09:29:43.201Z,1.50
2022-11-16T09:31:44.615Z,2.22
2022-11-16T09:33:48.662Z,1.30
2022-11-16T09:35:50.010Z,1.23
2022-11-16T09:37:51.349Z,1.58
2022-11-16T09:39:52.756Z,1.30
2022-11-16T09:42:07.219Z,1.02
2022-11-16T09:44:40.850Z,1.00
2022-11-16T09:46:49.572Z,1.00
2022-11-16T09:48:51.834Z,1.20
2022-11-16T09:50:56.815Z,1.00
2022-11-16T09:53:13.353Z,0.90
2022-11-16T09:55:26.291Z,1.10
2022-11-16T09:57:37.090Z,1.30
2022-11-16T09:59:41.799Z,1.02
2022-11-16T10:01:56.735Z,1.10
2022-11-16T10:04:08.932Z,1.55
2022-11-16T10:06:22.009Z,1.15
2022-11-16T10:11:00.100Z,1.10
2022-11-16T10:13:30.450Z,0.82
2022-11-16T10:16:04.097Z,0.80
2022-11-16T10:18:37.471Z,1.27
2022-11-16T10:20:47.944Z,1.05
2022-11-16T10:23:11.529Z,1.13
2022-11-16T10:25:22.889Z,1.25
2022-11-16T10:28:09.249Z,1.52
2022-11-16T10:30:14.740Z,1.35
2022-11-16T10:32:27.964Z,1.10
2022-11-16T10:34:56.520Z,0.85
2022-11-16T10:37:07.673Z,0.90
2022-11-16T10:39:13.940Z,0.90
2022-11-16T10:41:25.898Z,1.00
2022-11-16T10:43:30.585Z,1.25
2022-11-16T10:45:38.584Z,1.17
2022-11-16T10:47:50.722Z,0.80
2022-11-16T10:50:02.237Z,0.93
2022-11-16T10:52:03.755Z,1.30
2022-11-16T10:54:16.105Z,1.40
2022-11-16T10:56:30.113Z,1.83
2022-11-16T10:58:50.552Z,1.20
2022-11-16T11:00:52.072Z,1.05
2022-11-16T11:02:53.513Z,0.90
2022-11-16T11:05:08.095Z,0.80
2022-11-16T11:07:29.267Z,1.08
2022-11-16T11:09:30.683Z,1.10
2022-11-16T11:11:50.443Z,0.90
2022-11-16T11:14:04.812Z,1.00
2022-11-16T11:16:17.687Z,1.27
2022-11-16T11:18:26.180Z,0.93
2022-11-16T11:20:27.571Z,1.20
2022-11-16T11:22:29.060Z,0.95
2022-11-16T11:24:44.260Z,1.48
2022-11-16T11:26:52.990Z,1.42
2022-11-16T11:28:54.842Z,1.02
2022-11-16T11:31:01.502Z,0.80
2022-11-16T11:33:11.229Z,1.00
2022-11-16T11:35:24.632Z,0.65
2022-11-16T11:37:29.436Z,0.70
2022-11-16T11:39:36.445Z,0.88
2022-11-16T11:41:43.704Z,0.82
2022-11-16T11:44:05.152Z,1.33
2022-11-16T11:46:15.299Z,0.88
2022-11-16T11:48:37.801Z,0.70
2022-11-16T11:50:42.047Z,1.50
2022-11-16T11:52:46.400Z,1.00
2022-11-16T11:54:52.580Z,0.73
2022-11-16T11:56:54.390Z,0.77
2022-11-16T11:58:56.498Z,0.90
2022-11-16T12:00:57.836Z,1.20
2022-11-16T12:03:35.605Z,1.00
2022-11-16T12:06:02.104Z,0.80
2022-11-16T12:08:21.626Z,1.13
2022-11-16T12:10:48.892Z,0.75
2022-11-16T12:13:05.453Z,0.93
2022-11-16T12:15:32.174Z,0.63
2022-11-16T12:18:18.374Z,1.13
2022-11-16T12:20:31.835Z,1.10
2022-11-16T12:22:51.503Z,0.90
2022-11-16T12:24:59.934Z,0.93
2022-11-16T12:27:32.132Z,1.08
2022-11-16T12:30:14.056Z,1.15
2022-11-16T12:32:31.936Z,0.90
2022-11-16T12:34:48.367Z,0.82
2022-11-16T12:37:07.731Z,0.93
2022-11-16T12:41:37.401Z,0.52
2022-11-16T12:43:47.457Z,0.70
2022-11-16T12:45:57.893Z,0.63
2022-11-16T12:48:24.199Z,0.93
2022-11-16T12:50:43.898Z,1.70
2022-11-16T12:53:18.063Z,0.73
2022-11-16T12:55:41.451Z,0.77
2022-11-16T12:58:04.665Z,1.38
2022-11-16T13:00:12.491Z,1.20
2022-11-16T13:02:41.021Z,0.93
2022-11-16T13:04:48.161Z,0.80
2022-11-16T13:07:10.922Z,1.00
2022-11-16T13:09:15.480Z,0.98
2022-11-16T13:11:29.696Z,1.00
2022-11-16T13:13:36.686Z,1.13
2022-11-16T13:15:40.871Z,3.13
2022-11-16T13:17:44.339Z,0.80
2022-11-16T13:19:57.616Z,1.20
2022-11-16T13:22:07.463Z,1.40
2022-11-16T13:24:11.773Z,1.08
2022-11-16T13:26:22.553Z,1.23
2022-11-16T13:28:38.403Z,1.02
2022-11-16T13:30:57.487Z,0.88
2022-11-16T13:33:01.856Z,0.65
2022-11-16T13:35:11.628Z,0.68
2022-11-16T13:37:38.013Z,1.20
2022-11-16T13:40:03.340Z,0.73
2022-11-16T13:42:13.107Z,0.60
2022-11-16T13:44:24.528Z,1.45
2022-11-16T13:46:55.921Z,1.00
2022-11-16T13:48:58.106Z,0.93
2022-11-16T13:51:22.845Z,0.93
2022-11-16T13:54:42.657Z,0.90
2022-11-16T13:56:01.775Z,0.70
2022-11-16T13:58:06.190Z,0.77
2022-11-16T14:00:11.292Z,0.85
2022-11-16T14:02:29.465Z,1.00
2022-11-16T14:04:41.908Z,0.95
2022-11-16T14:06:43.212Z,0.90
2022-11-16T14:08:45.312Z,0.88
2022-11-16T14:10:49.999Z,0.60
2022-11-16T14:12:54.005Z,0.80
2022-11-16T14:15:21.964Z,0.80
2022-11-16T14:17:55.062Z,0.85
2022-11-16T14:19:56.896Z,0.70
2022-11-16T14:22:12.455Z,1.02
2022-11-16T14:24:40.901Z,1.48
2022-11-16T14:27:16.881Z,0.90
2022-11-16T14:29:31.871Z,1.10
2022-11-16T14:31:56.686Z,1.17
2022-11-16T14:34:00.416Z,1.10
2022-11-16T14:36:04.418Z,1.45
2022-11-16T14:38:17.757Z,1.00
2022-11-16T14:40:20.021Z,1.02
2022-11-16T14:42:48.394Z,0.77
2022-11-16T14:45:11.749Z,1.05
2022-11-16T14:47:25.292Z,1.25
2022-11-16T14:49:28.622Z,1.45
2022-11-16T14:51:35.350Z,0.80
2022-11-16T14:53:41.599Z,0.93
2022-11-16T14:55:45.819Z,1.27
2022-11-16T14:57:47.695Z,1.08
2022-11-16T15:00:06.001Z,0.80
2022-11-16T15:02:18.920Z,1.10
2022-11-16T15:04:22.056Z,1.15
2022-11-16T15:06:25.887Z,0.90
2022-11-16T15:08:42.827Z,1.00
2022-11-16T15:10:51.075Z,1.45
2022-11-16T15:12:55.753Z,1.08
2022-11-16T15:15:01.104Z,1.13
2022-11-16T15:17:02.926Z,0.90
2022-11-16T15:19:12.478Z,1.10
2022-11-16T15:21:24.064Z,1.10
2022-11-16T15:23:30.403Z,1.08
2022-11-16T15:25:35.945Z,1.10
2022-11-16T15:27:40.593Z,1.33
2022-11-16T15:29:42.049Z,1.00
2022-11-16T15:31:45.195Z,1.00
2022-11-16T15:33:46.736Z,1.00
2022-11-16T15:35:48.303Z,1.38
2022-11-16T15:38:16.619Z,1.45
2022-11-16T15:40:18.012Z,1.30
2022-11-16T15:42:20.920Z,1.30
2022-11-16T15:44:23.573Z,1.23
2022-11-16T15:46:31.230Z,1.15
2022-11-16T15:48:34.004Z,1.25
2022-11-16T15:50:35.866Z,1.42
2022-11-16T15:52:45.455Z,1.65
2022-11-16T15:55:03.865Z,1.27
2022-11-16T15:57:09.728Z,1.35
2022-11-16T15:59:27.580Z,1.42
2022-11-16T16:01:30.349Z,1.45
2022-11-16T16:03:35.219Z,1.33
2022-11-16T16:05:40.954Z,1.27
2022-11-16T16:07:43.868Z,1.60
2022-11-16T16:09:45.319Z,1.35
2022-11-16T16:11:46.956Z,1.20
2022-11-16T16:14:10.697Z,1.20
2022-11-16T16:16:12.174Z,1.02
2022-11-16T16:18:39.385Z,1.00
2022-11-16T16:20:48.716Z,1.08
2022-11-16T16:22:51.482Z,1.30
2022-11-16T16:24:53.575Z,1.23
2022-11-16T16:26:55.050Z,2.03
2022-11-16T16:28:56.783Z,2.75
2022-11-16T16:30:58.147Z,5.47
2022-11-16T16:32:59.744Z,6.18
2022-11-16T16:35:03.056Z,6.10
2022-11-16T16:37:04.416Z,5.63
2022-11-16T16:39:05.772Z,4.68
2022-11-16T16:41:07.638Z,3.58
2022-11-16T16:43:09.025Z,2.45
2022-11-16T16:45:35.102Z,2.33
2022-11-16T16:47:36.471Z,2.08
2022-11-16T16:49:38.120Z,1.90
2022-11-16T16:51:39.494Z,1.98
2022-11-16T16:53:40.822Z,2.47
2022-11-16T16:55:43.132Z,2.47
2022-11-16T16:57:44.497Z,2.10
2022-11-16T16:59:48.056Z,1.55
2022-11-16T17:01:50.588Z,1.52
2022-11-16T17:03:51.948Z,1.90
2022-11-16T17:05:59.595Z,2.00
2022-11-16T17:08:01.089Z,1.83
2022-11-16T17:10:02.468Z,1.70
2022-11-16T17:12:04.288Z,1.92
2022-11-16T17:14:05.830Z,1.80
2022-11-16T17:16:07.534Z,1.98
2022-11-16T17:18:09.231Z,2.70
2022-11-16T17:20:11.501Z,2.60
2022-11-16T17:22:13.979Z,3.33
2022-11-16T17:24:15.371Z,4.18
2022-11-16T17:26:17.259Z,3.70
2022-11-16T17:28:18.710Z,2.83
2022-11-16T17:30:20.212Z,1.90
2022-11-16T17:32:21.585Z,2.03
2022-11-16T17:34:23.035Z,1.65
2022-11-16T17:36:24.383Z,1.70
2022-11-16T17:38:25.881Z,1.40
2022-11-16T17:40:27.335Z,1.67
2022-11-16T17:42:28.710Z,1.60
2022-11-16T17:44:30.381Z,1.30
2022-11-16T17:46:31.823Z,1.48
2022-11-16T17:48:33.979Z,2.22
2022-11-16T17:50:35.360Z,1.70
2022-11-16T17:52:36.743Z,1.58
2022-11-16T17:54:38.135Z,1.38
2022-11-16T17:56:39.533Z,1.92
2022-11-16T17:58:41.465Z,2.17
2022-11-16T18:00:42.852Z,1.38
2022-11-16T18:02:44.263Z,8.68
2022-11-16T18:04:50.709Z,8.90
2022-11-16T18:08:54.143Z,4.35
2022-11-16T18:10:55.573Z,3.20
2022-11-16T18:12:57.062Z,2.22
2022-11-16T18:15:26.518Z,2.42
2022-11-16T18:17:20.036Z,2.03
2022-11-16T18:19:23.376Z,2.03
2022-11-16T18:21:25.530Z,2.05
2022-11-16T18:23:30.077Z,2.03
2022-11-16T18:25:34.572Z,2.15
2022-11-16T18:27:38.500Z,2.38
2022-11-16T18:29:40.145Z,1.98
2022-11-16T18:31:42.159Z,2.03
2022-11-16T18:33:44.331Z,1.70
2022-11-16T18:35:45.812Z,2.00
2022-11-16T18:37:47.153Z,2.00
2022-11-16T18:39:48.599Z,2.03
2022-11-16T18:41:55.015Z,1.73
2022-11-16T18:43:59.006Z,1.90
2022-11-16T18:46:00.655Z,1.85
2022-11-16T18:48:01.983Z,1.42
2022-11-16T18:50:06.002Z,1.73
2022-11-16T18:52:07.400Z,1.80
2022-11-16T18:54:09.785Z,2.10
2022-11-16T18:56:11.858Z,1.98
2022-11-16T18:58:43.486Z,2.08
2022-11-16T19:00:34.657Z,1.55
2022-11-16T19:02:36.058Z,2.00
2022-11-16T19:04:39.936Z,1.70
2022-11-16T19:06:41.325Z,1.73
2022-11-16T19:08:43.578Z,2.22
2022-11-16T19:10:45.028Z,1.90
2022-11-16T19:12:46.410Z,2.05
2022-11-16T19:14:47.812Z,1.65
2022-11-16T19:16:55.638Z,2.55
2022-11-16T19:18:58.488Z,2.13
2022-11-16T19:21:11.070Z,2.33
2022-11-16T19:23:12.540Z,2.13
2022-11-16T19:25:13.969Z,2.45
2022-11-16T19:27:16.618Z,2.65
2022-11-16T19:29:18.008Z,2.78
2022-11-16T19:31:20.690Z,3.42
2022-11-16T19:33:22.121Z,2.70
2022-11-16T19:35:23.822Z,3.63
2022-11-16T19:37:25.755Z,3.25
2022-11-16T19:39:27.188Z,3.78
2022-11-16T19:41:28.597Z,3.30
2022-11-16T19:43:30.041Z,3.15
2022-11-16T19:45:31.764Z,2.95
2022-11-16T19:47:33.124Z,3.60
2022-11-16T19:49:34.549Z,3.08
2022-11-16T19:51:36.073Z,3.60
2022-11-16T19:53:38.322Z,3.30
2022-11-16T19:55:39.853Z,2.78
2022-11-16T19:57:41.455Z,3.47
2022-11-16T19:59:42.861Z,3.25
2022-11-16T20:01:44.252Z,2.90
2022-11-16T20:03:47.288Z,2.67
2022-11-16T20:05:48.638Z,2.50
2022-11-16T20:07:50.299Z,2.63
2022-11-16T20:09:53.545Z,2.63
2022-11-16T20:11:56.357Z,2.67
2022-11-16T20:13:58.402Z,2.97
2022-11-16T20:16:01.992Z,2.58
2022-11-16T20:18:03.480Z,2.92
2022-11-16T20:20:05.277Z,2.70
2022-11-16T20:22:06.764Z,2.90
2022-11-16T20:24:12.040Z,3.30
2022-11-16T20:26:14.362Z,2.75
2022-11-16T20:28:15.760Z,2.80
2022-11-16T20:30:17.395Z,3.00
2022-11-16T20:32:18.891Z,2.55
2022-11-16T20:34:22.058Z,3.42
2022-11-16T20:36:25.250Z,2.70
2022-11-16T20:38:26.613Z,2.83
2022-11-16T20:40:28.048Z,2.70
2022-11-16T20:42:29.416Z,2.58
2022-11-16T20:44:36.456Z,2.80
2022-11-16T20:46:38.434Z,2.50
2022-11-16T20:48:41.127Z,2.67
2022-11-16T20:50:42.576Z,3.47
2022-11-16T20:52:47.245Z,3.47
2022-11-16T20:54:52.853Z,3.15
2022-11-16T20:56:54.236Z,3.08
2022-11-16T20:58:57.874Z,2.97
2022-11-16T21:01:01.177Z,3.05
2022-11-16T21:03:08.517Z,3.08
2022-11-16T21:05:09.918Z,2.45
2022-11-16T21:07:11.360Z,2.70
2022-11-16T21:09:15.519Z,3.40
2022-11-16T21:11:19.719Z,2.42
2022-11-16T21:13:40.365Z,2.70
2022-11-16T21:15:41.739Z,2.78
2022-11-16T21:17:43.209Z,2.55
2022-11-16T21:20:05.399Z,2.67
2022-11-16T21:22:05.947Z,2.80
2022-11-16T21:24:11.282Z,2.30
2022-11-16T21:26:14.986Z,2.55
2022-11-16T21:28:20.109Z,2.65
2022-11-16T21:30:27.199Z,2.35
2022-11-16T21:32:28.589Z,1.83
2022-11-16T21:34:34.620Z,2.67
2022-11-16T21:36:39.336Z,2.45
2022-11-16T21:38:41.380Z,2.05
2022-11-16T21:43:09.078Z,2.00
2022-11-16T21:45:11.565Z,2.30
2022-11-16T21:47:13.265Z,2.13
2022-11-16T21:49:14.602Z,2.15
2022-11-16T21:51:18.220Z,1.83
2022-11-16T21:53:19.607Z,1.80
2022-11-16T21:55:20.998Z,2.00
2022-11-16T21:57:22.869Z,1.55
2022-11-16T21:59:24.311Z,2.03
2022-11-16T22:01:45.695Z,1.88
2022-11-16T22:03:48.391Z,1.80
2022-11-16T22:06:12.709Z,1.90
2022-11-16T22:08:17.708Z,1.50
2022-11-16T22:10:19.224Z,1.75
2022-11-16T22:12:20.838Z,1.45
2022-11-16T22:14:22.229Z,1.50
2022-11-16T22:16:23.829Z,1.63
2022-11-16T22:18:25.233Z,2.22
2022-11-16T22:20:26.612Z,1.77
2022-11-16T22:22:28.394Z,1.48
2022-11-16T22:24:30.608Z,1.73
2022-11-16T22:26:32.079Z,1.90
2022-11-16T22:28:34.219Z,2.03
2022-11-16T22:30:36.126Z,1.63
2022-11-16T22:32:37.601Z,1.58
2022-11-16T22:34:39.128Z,1.65
2022-11-16T22:36:40.500Z,1.70
2022-11-16T22:38:41.895Z,1.50
2022-11-16T22:40:52.258Z,2.00
2022-11-16T22:42:56.967Z,1.58
2022-11-16T22:44:58.373Z,2.30
2022-11-16T22:46:59.799Z,1.80
2022-11-16T22:49:01.164Z,1.80
2022-11-16T22:51:12.063Z,1.50
2022-11-16T22:53:14.647Z,1.60
2022-11-16T22:55:16.062Z,1.52
2022-11-16T22:57:17.417Z,1.75
2022-11-16T22:59:18.792Z,1.67
2022-11-16T23:01:20.882Z,1.58
2022-11-16T23:03:22.285Z,1.30
2022-11-16T23:05:23.737Z,2.30
2022-11-16T23:07:25.137Z,1.33
2022-11-16T23:09:26.616Z,1.45
2022-11-16T23:11:47.068Z,1.42
2022-11-16T23:14:07.948Z,1.50
2022-11-16T23:16:09.328Z,1.48
2022-11-16T23:18:10.785Z,1.40
2022-11-16T23:20:30.865Z,1.50
2022-11-16T23:22:50.683Z,1.23
2022-11-16T23:25:10.545Z,1.40
2022-11-16T23:27:29.891Z,1.48
2022-11-16T23:29:31.285Z,1.63
2022-11-16T23:31:32.620Z,1.20
2022-11-16T23:33:46.087Z,2.40
2022-11-16T23:35:47.478Z,1.83
2022-11-16T23:38:08.047Z,1.17
2022-11-16T23:40:10.008Z,1.30
2022-11-16T23:42:30.700Z,1.23
2022-11-16T23:44:32.043Z,1.40
2022-11-16T23:46:33.816Z,1.35
2022-11-16T23:48:35.209Z,1.40
2022-11-16T23:50:37.118Z,1.80
2022-11-16T23:52:38.481Z,1.13
2022-11-16T23:54:39.887Z,1.42
2022-11-16T23:56:41.272Z,1.60
2022-11-16T23:58:42.616Z,1.30
